createdAt,value
2019-05-29T00:03:30.756Z,12.18
2019-05-29T00:12:51.629Z,12.12
2019-05-29T00:19:00.570Z,12.10
2019-05-29T00:24:08.295Z,12.11
2019-05-29T00:33:25.595Z,12.04
2019-05-29T00:43:55.579Z,12.13
2019-05-29T00:52:16.651Z,12.08
2019-05-29T00:57:23.571Z,12.19
2019-05-29T01:02:30.567Z,12.20
2019-05-29T01:07:37.437Z,12.20
2019-05-29T01:12:44.590Z,12.21
2019-05-29T01:17:51.581Z,12.23
2019-05-29T01:22:59.061Z,12.19
2019-05-29T01:28:08.665Z,12.19
2019-05-29T01:33:20.022Z,12.16
2019-05-29T01:38:24.436Z,12.16
2019-05-29T01:43:31.419Z,12.11
2019-05-29T01:48:38.484Z,12.11
2019-05-29T01:53:45.440Z,12.10
2019-05-29T01:58:52.462Z,12.12
2019-05-29T02:03:59.464Z,12.14
2019-05-29T02:09:08.066Z,12.21
2019-05-29T02:14:16.346Z,12.21
2019-05-29T02:19:24.017Z,12.24
2019-05-29T02:24:31.411Z,12.24
2019-05-29T02:29:38.444Z,12.26
2019-05-29T02:34:45.518Z,12.26
2019-05-29T02:39:52.411Z,12.25
2019-05-29T02:44:59.543Z,12.20
2019-05-29T02:50:08.276Z,12.14
2019-05-29T02:55:15.594Z,12.10
2019-05-29T03:00:40.919Z,12.04
2019-05-29T03:05:48.408Z,12.04
2019-05-29T03:10:55.461Z,11.98
2019-05-29T03:16:10.605Z,12.01
2019-05-29T03:21:11.556Z,11.99
2019-05-29T03:26:24.760Z,11.99
2019-05-29T03:31:36.971Z,12.01
2019-05-29T03:36:46.950Z,12.04
2019-05-29T03:41:47.432Z,12.08
2019-05-29T03:46:54.472Z,12.06
2019-05-29T03:52:01.478Z,12.10
2019-05-29T03:57:08.533Z,12.07
2019-05-29T04:02:15.476Z,12.08
2019-05-29T04:07:22.497Z,12.18
2019-05-29T04:12:30.031Z,12.22
2019-05-29T04:17:42.548Z,12.22
2019-05-29T04:22:52.569Z,12.40
2019-05-29T04:28:02.267Z,12.43
2019-05-29T04:33:10.096Z,12.43
2019-05-29T04:38:17.417Z,12.48
2019-05-29T04:43:24.454Z,12.47
2019-05-29T04:48:33.149Z,12.50
2019-05-29T04:53:40.568Z,12.54
2019-05-29T04:58:49.464Z,12.48
2019-05-29T05:03:56.583Z,12.46
2019-05-29T05:09:03.473Z,12.61
2019-05-29T05:14:10.579Z,12.68
2019-05-29T05:19:17.580Z,12.74
2019-05-29T05:24:24.659Z,12.72
2019-05-29T05:29:32.164Z,12.77
2019-05-29T05:34:40.895Z,12.77
2019-05-29T05:39:48.464Z,12.88
2019-05-29T05:44:55.567Z,12.82
2019-05-29T05:50:02.630Z,12.77
2019-05-29T05:55:09.498Z,12.91
2019-05-29T06:00:22.128Z,12.91
2019-05-29T06:05:28.291Z,13.09
2019-05-29T06:10:36.159Z,13.14
2019-05-29T06:15:43.557Z,13.55
2019-05-29T06:20:53.021Z,13.90
2019-05-29T06:26:00.429Z,13.90
2019-05-29T06:31:11.569Z,14.06
2019-05-29T06:36:20.545Z,14.11
2019-05-29T06:41:27.626Z,14.02
2019-05-29T06:46:36.145Z,14.11
2019-05-29T06:51:43.536Z,14.11
2019-05-29T06:56:55.273Z,13.97
2019-05-29T07:06:44.781Z,13.98
2019-05-29T07:11:51.594Z,15.20
2019-05-29T07:16:58.456Z,14.58
2019-05-29T07:22:07.238Z,14.58
2019-05-29T07:27:14.445Z,14.54
2019-05-29T07:32:22.539Z,14.32
2019-05-29T07:37:29.578Z,14.33
2019-05-29T07:42:36.468Z,14.33
2019-05-29T07:47:44.747Z,14.59
2019-05-29T07:52:51.635Z,14.95
2019-05-29T07:57:58.572Z,15.40
2019-05-29T08:03:05.471Z,15.40
2019-05-29T08:08:14.717Z,15.66
2019-05-29T08:13:22.879Z,15.66
2019-05-29T08:18:29.878Z,15.83
2019-05-29T08:23:36.582Z,15.84
2019-05-29T08:28:44.770Z,15.71
2019-05-29T08:33:52.405Z,15.98
2019-05-29T08:38:59.513Z,15.98
2019-05-29T08:44:09.322Z,16.29
2019-05-29T08:49:18.897Z,16.49
2019-05-29T08:54:26.277Z,17.11
2019-05-29T08:59:33.694Z,17.33
2019-05-29T09:04:43.142Z,17.91
2019-05-29T09:09:51.224Z,17.91
2019-05-29T09:14:58.458Z,19.62
2019-05-29T09:20:06.256Z,19.62
2019-05-29T09:25:13.685Z,19.21
2019-05-29T09:30:21.903Z,19.86
2019-05-29T09:35:31.260Z,20.05
2019-05-29T09:40:37.343Z,19.07
2019-05-29T09:45:43.624Z,19.05
2019-05-29T09:50:51.007Z,20.18
2019-05-29T09:55:59.120Z,20.15
2019-05-29T10:01:21.438Z,19.06
2019-05-29T10:06:15.565Z,19.06
2019-05-29T10:11:22.443Z,20.37
2019-05-29T10:16:29.450Z,20.37
2019-05-29T10:21:40.636Z,20.22
2019-05-29T10:26:45.432Z,20.18
2019-05-29T10:31:53.439Z,20.87
2019-05-29T10:37:00.479Z,22.12
2019-05-29T10:42:07.937Z,22.12
2019-05-29T10:47:16.563Z,21.12
2019-05-29T10:52:23.936Z,19.96
2019-05-29T10:57:32.713Z,20.39
2019-05-29T11:02:39.586Z,20.89
2019-05-29T11:07:47.637Z,21.70
2019-05-29T11:12:54.739Z,21.70
2019-05-29T11:18:01.613Z,21.16
2019-05-29T11:25:27.448Z,20.88
2019-05-29T11:30:32.576Z,21.03
2019-05-29T11:35:54.857Z,21.37
2019-05-29T11:45:01.631Z,21.52
2019-05-29T12:00:25.031Z,21.84
2019-05-29T12:05:32.456Z,21.31
2019-05-29T12:13:40.569Z,21.42
2019-05-29T12:18:47.432Z,21.76
2019-05-29T12:23:54.424Z,21.76
2019-05-29T12:35:26.434Z,21.49
2019-05-29T12:40:34.664Z,21.99
2019-05-29T12:50:58.233Z,22.29
2019-05-29T12:56:05.616Z,22.35
2019-05-29T13:01:12.611Z,24.15
2019-05-29T13:12:37.538Z,23.90
2019-05-29T13:17:45.600Z,24.06
2019-05-29T13:29:10.045Z,23.90
2019-05-29T13:34:18.261Z,24.71
2019-05-29T13:43:31.601Z,24.13
2019-05-29T13:50:30.929Z,24.16
2019-05-29T13:55:52.617Z,26.29
2019-05-29T14:01:24.583Z,26.15
2019-05-29T14:09:11.459Z,26.59
2019-05-29T14:14:18.638Z,26.41
2019-05-29T14:19:40.639Z,25.32
2019-05-29T14:24:48.013Z,26.80
2019-05-29T14:29:56.755Z,26.80
2019-05-29T14:35:05.592Z,25.86
2019-05-29T14:41:01.742Z,26.04
2019-05-29T14:46:08.588Z,25.88
2019-05-29T14:51:15.510Z,26.09
2019-05-29T15:00:25.526Z,26.58
2019-05-29T15:07:11.994Z,26.29
2019-05-29T15:17:15.455Z,25.13
2019-05-29T15:26:14.057Z,24.98
2019-05-29T15:31:21.419Z,25.64
2019-05-29T15:36:29.423Z,26.27
2019-05-29T15:51:46.531Z,24.27
2019-05-29T16:08:39.707Z,22.85
2019-05-29T16:18:48.973Z,22.15
2019-05-29T16:23:56.407Z,22.04
2019-05-29T16:29:03.902Z,21.42
2019-05-29T16:34:12.323Z,21.95
2019-05-29T16:40:32.270Z,21.94
2019-05-29T16:52:28.101Z,20.16
2019-05-29T17:02:25.588Z,18.96
2019-05-29T17:07:32.447Z,19.47
2019-05-29T17:16:26.686Z,19.45
2019-05-29T17:21:33.458Z,20.15
2019-05-29T17:35:57.632Z,19.65
2019-05-29T17:45:21.558Z,20.60
2019-05-29T18:04:12.417Z,20.03
2019-05-29T18:15:57.262Z,18.90
2019-05-29T18:27:12.437Z,18.18
2019-05-29T18:32:20.334Z,18.24
2019-05-29T18:39:22.167Z,17.90
2019-05-29T18:44:29.423Z,17.97
2019-05-29T18:49:36.579Z,17.77
2019-05-29T18:55:38.441Z,17.59
2019-05-29T19:00:46.438Z,18.43
2019-05-29T19:10:16.272Z,17.41
2019-05-29T19:18:36.775Z,17.16
2019-05-29T19:28:47.430Z,17.30
2019-05-29T19:33:55.666Z,16.92
2019-05-29T19:41:13.076Z,16.47
2019-05-29T19:46:53.976Z,16.31
2019-05-29T19:51:59.544Z,16.02
2019-05-29T20:01:06.639Z,15.74
2019-05-29T20:06:13.477Z,15.89
2019-05-29T20:11:20.573Z,15.89
2019-05-29T20:16:30.637Z,15.43
2019-05-29T20:26:29.106Z,14.97
2019-05-29T20:31:42.769Z,14.97
2019-05-29T20:36:50.780Z,14.82
2019-05-29T20:41:57.693Z,14.70
2019-05-29T20:47:04.563Z,14.46
2019-05-29T21:02:18.066Z,14.33
2019-05-29T21:07:26.703Z,14.10
2019-05-29T21:12:35.123Z,13.92
2019-05-29T21:23:56.772Z,13.47
2019-05-29T21:29:03.589Z,13.39
2019-05-29T21:34:10.470Z,13.13
2019-05-29T21:42:30.662Z,13.00
2019-05-29T21:47:38.871Z,12.82
2019-05-29T21:52:47.566Z,12.82
2019-05-29T22:00:53.063Z,12.50
2019-05-29T22:06:01.762Z,12.47
2019-05-29T22:21:50.962Z,12.07
2019-05-29T22:28:41.283Z,12.45
2019-05-29T22:33:48.443Z,12.14
2019-05-29T22:38:55.576Z,11.88
2019-05-29T22:44:02.681Z,11.74
2019-05-29T22:52:02.225Z,11.54
2019-05-29T22:57:08.613Z,11.47
2019-05-29T23:02:15.480Z,11.30
2019-05-29T23:07:22.477Z,11.23
2019-05-29T23:14:43.054Z,11.15
2019-05-29T23:19:50.258Z,11.17
2019-05-29T23:32:14.615Z,11.10
2019-05-29T23:37:21.435Z,10.89
2019-05-29T23:42:29.433Z,10.89
2019-05-29T23:47:37.454Z,10.80
2019-05-29T23:53:15.574Z,10.76
2019-05-29T23:58:22.438Z,10.52
